createdAt,value
2023-01-13T00:00:24.732Z,3.50
2023-01-13T00:02:51.809Z,3.50
2023-01-13T00:05:18.733Z,3.50
2023-01-13T00:07:46.720Z,3.50
2023-01-13T00:10:13.624Z,3.60
2023-01-13T00:12:42.288Z,3.50
2023-01-13T00:15:10.504Z,3.60
2023-01-13T00:17:39.171Z,3.60
2023-01-13T00:20:07.227Z,3.60
2023-01-13T00:22:36.144Z,3.60
2023-01-13T00:25:04.696Z,3.60
2023-01-13T00:27:31.877Z,3.60
2023-01-13T00:29:58.825Z,3.60
2023-01-13T00:32:26.580Z,3.70
2023-01-13T00:34:53.568Z,3.60
2023-01-13T00:37:23.010Z,3.60
2023-01-13T00:39:51.788Z,3.60
2023-01-13T00:42:38.047Z,3.60
2023-01-13T00:45:05.723Z,3.60
2023-01-13T00:47:32.727Z,3.60
2023-01-13T00:49:59.793Z,3.60
2023-01-13T00:52:27.755Z,3.60
2023-01-13T00:54:54.828Z,3.60
2023-01-13T00:57:21.704Z,3.60
2023-01-13T00:59:49.638Z,3.60
2023-01-13T01:02:16.717Z,3.60
2023-01-13T01:04:43.905Z,3.60
2023-01-13T01:07:10.744Z,3.60
2023-01-13T01:09:40.063Z,3.60
2023-01-13T01:12:08.086Z,3.50
2023-01-13T01:14:35.316Z,3.60
2023-01-13T01:17:04.769Z,3.50
2023-01-13T01:19:31.745Z,3.50
2023-01-13T01:21:59.879Z,3.50
2023-01-13T01:24:26.717Z,3.60
2023-01-13T01:26:53.874Z,3.60
2023-01-13T01:29:21.443Z,3.60
2023-01-13T01:31:48.567Z,3.70
2023-01-13T01:34:15.668Z,3.70
2023-01-13T01:36:45.947Z,3.60
2023-01-13T01:39:13.082Z,3.60
2023-01-13T01:41:40.175Z,3.60
2023-01-13T01:44:44.870Z,3.60
2023-01-13T01:47:16.393Z,3.50
2023-01-13T01:49:44.950Z,3.50
2023-01-13T01:52:16.546Z,3.60
2023-01-13T01:54:53.594Z,3.60
2023-01-13T01:57:28.411Z,3.60
2023-01-13T01:59:58.197Z,3.60
2023-01-13T02:02:25.576Z,3.70
2023-01-13T02:04:56.884Z,3.70
2023-01-13T02:07:27.344Z,3.70
2023-01-13T02:09:57.601Z,3.70
2023-01-13T02:12:32.890Z,3.80
2023-01-13T02:15:07.609Z,3.80
2023-01-13T02:18:02.287Z,3.80
2023-01-13T02:20:45.647Z,3.90
2023-01-13T02:23:52.961Z,3.80
2023-01-13T02:26:55.233Z,3.90
2023-01-13T02:30:19.675Z,3.90
2023-01-13T02:33:02.372Z,3.90
2023-01-13T02:35:48.244Z,4.00
2023-01-13T02:38:19.282Z,4.00
2023-01-13T02:41:23.721Z,4.00
2023-01-13T02:44:09.710Z,4.00
2023-01-13T02:46:55.461Z,4.10
2023-01-13T02:49:41.127Z,4.10
2023-01-13T02:52:21.841Z,4.20
2023-01-13T02:54:57.143Z,4.20
2023-01-13T02:57:26.450Z,4.20
2023-01-13T02:59:55.589Z,4.30
2023-01-13T03:02:25.176Z,4.30
2023-01-13T03:04:59.823Z,4.30
2023-01-13T03:07:48.087Z,4.30
2023-01-13T03:10:34.175Z,4.30
2023-01-13T03:13:20.553Z,4.30
2023-01-13T03:16:09.408Z,4.30
2023-01-13T03:18:53.218Z,4.40
2023-01-13T03:21:42.013Z,4.30
2023-01-13T03:24:25.454Z,4.40
2023-01-13T03:27:03.967Z,4.40
2023-01-13T03:29:57.974Z,4.40
2023-01-13T03:32:32.669Z,4.40
2023-01-13T03:35:18.920Z,4.40
2023-01-13T03:37:58.527Z,4.40
2023-01-13T03:40:35.402Z,4.40
2023-01-13T03:43:31.633Z,4.40
2023-01-13T03:46:05.084Z,4.40
2023-01-13T03:48:37.653Z,4.40
2023-01-13T03:51:11.203Z,4.40
2023-01-13T03:53:49.775Z,4.40
2023-01-13T03:56:33.637Z,4.40
2023-01-13T03:59:05.203Z,4.40
2023-01-13T04:01:53.708Z,4.40
2023-01-13T04:04:27.188Z,4.40
2023-01-13T04:07:13.933Z,4.50
2023-01-13T04:10:04.835Z,4.50
2023-01-13T04:13:00.572Z,4.60
2023-01-13T04:15:31.395Z,4.60
2023-01-13T04:18:27.070Z,4.60
2023-01-13T04:20:56.194Z,4.60
2023-01-13T04:23:24.364Z,4.70
2023-01-13T04:25:51.857Z,4.70
2023-01-13T04:28:19.420Z,4.80
2023-01-13T04:30:46.626Z,4.80
2023-01-13T04:33:14.699Z,4.80
2023-01-13T04:35:41.937Z,4.80
2023-01-13T04:38:12.990Z,4.80
2023-01-13T04:40:41.365Z,4.90
2023-01-13T04:43:08.541Z,4.90
2023-01-13T04:45:35.932Z,4.90
2023-01-13T04:48:03.189Z,4.90
2023-01-13T04:50:29.937Z,4.90
2023-01-13T04:52:56.713Z,4.90
2023-01-13T04:55:24.743Z,4.90
2023-01-13T04:57:52.072Z,4.90
2023-01-13T05:00:22.275Z,4.90
2023-01-13T05:02:52.227Z,4.90
2023-01-13T05:05:19.419Z,4.90
2023-01-13T05:07:46.207Z,4.90
2023-01-13T05:10:13.160Z,5.00
2023-01-13T05:12:58.697Z,4.90
2023-01-13T05:15:44.423Z,4.90
2023-01-13T05:18:11.729Z,5.00
2023-01-13T05:20:38.470Z,4.90
2023-01-13T05:23:24.118Z,5.00
2023-01-13T05:25:51.091Z,5.00
2023-01-13T05:28:17.859Z,5.00
2023-01-13T05:30:49.419Z,5.00
2023-01-13T05:33:36.063Z,5.00
2023-01-13T05:36:04.077Z,5.00
2023-01-13T05:38:33.385Z,5.00
2023-01-13T05:41:19.554Z,5.00
2023-01-13T05:43:48.577Z,5.10
2023-01-13T05:46:17.883Z,5.10
2023-01-13T05:48:44.715Z,5.10
2023-01-13T05:51:12.785Z,5.10
2023-01-13T05:53:40.877Z,5.10
2023-01-13T05:56:11.733Z,5.20
2023-01-13T05:58:39.055Z,5.20
2023-01-13T06:01:08.536Z,5.20
2023-01-13T06:03:37.579Z,5.20
2023-01-13T06:06:09.181Z,5.20
2023-01-13T06:08:39.439Z,5.20
2023-01-13T06:11:06.782Z,5.20
2023-01-13T06:13:33.615Z,5.10
2023-01-13T06:16:00.711Z,5.20
2023-01-13T06:18:28.381Z,5.10
2023-01-13T06:21:02.608Z,5.10
2023-01-13T06:23:29.583Z,5.10
2023-01-13T06:26:21.391Z,5.10
2023-01-13T06:28:49.963Z,5.10
2023-01-13T06:31:17.112Z,5.10
2023-01-13T06:33:50.312Z,5.10
2023-01-13T06:36:22.491Z,5.20
2023-01-13T06:38:53.660Z,5.20
2023-01-13T06:41:41.099Z,5.20
2023-01-13T06:44:07.783Z,5.20
2023-01-13T06:46:35.681Z,5.20
2023-01-13T06:49:02.401Z,5.30
2023-01-13T06:51:29.060Z,5.30
2023-01-13T06:53:55.911Z,5.30
2023-01-13T06:56:22.758Z,5.30
2023-01-13T06:58:49.411Z,5.30
2023-01-13T07:01:17.571Z,5.30
2023-01-13T07:03:44.463Z,5.30
2023-01-13T07:06:11.353Z,5.30
2023-01-13T07:08:38.241Z,5.30
2023-01-13T07:11:05.033Z,5.30
2023-01-13T07:13:50.891Z,5.30
2023-01-13T07:16:17.835Z,5.30
2023-01-13T07:18:44.898Z,5.30
2023-01-13T07:21:13.394Z,5.30
2023-01-13T07:23:43.287Z,5.30
2023-01-13T07:26:11.086Z,5.30
2023-01-13T07:28:38.349Z,5.30
2023-01-13T07:31:06.406Z,5.30
2023-01-13T07:33:33.411Z,5.30
2023-01-13T07:36:05.883Z,5.30
2023-01-13T07:38:34.028Z,5.30
2023-01-13T07:41:24.070Z,5.40
2023-01-13T07:43:52.200Z,5.40
2023-01-13T07:46:19.222Z,5.40
2023-01-13T07:48:47.296Z,5.50
2023-01-13T07:51:13.921Z,5.50
2023-01-13T07:53:41.096Z,5.50
2023-01-13T07:56:08.691Z,5.50
2023-01-13T07:58:36.273Z,5.60
2023-01-13T08:01:13.621Z,5.60
2023-01-13T08:03:41.101Z,5.70
2023-01-13T08:06:11.639Z,5.80
2023-01-13T08:08:38.883Z,5.80
2023-01-13T08:11:07.482Z,5.90
2023-01-13T08:13:34.614Z,5.90
2023-01-13T08:16:08.064Z,6.00
2023-01-13T08:18:36.230Z,6.00
2023-01-13T08:21:09.832Z,6.10
2023-01-13T08:23:37.266Z,6.20
2023-01-13T08:26:06.327Z,6.20
2023-01-13T08:28:33.934Z,6.30
2023-01-13T08:31:01.469Z,6.30
2023-01-13T08:33:29.124Z,6.40
2023-01-13T08:35:56.529Z,6.50
2023-01-13T08:38:24.438Z,6.50
2023-01-13T08:40:51.498Z,6.50
2023-01-13T08:43:18.334Z,6.60
2023-01-13T08:45:45.153Z,6.60
2023-01-13T08:48:12.363Z,6.60
2023-01-13T08:50:39.122Z,6.70
2023-01-13T08:53:07.193Z,6.60
2023-01-13T08:55:34.107Z,6.70
2023-01-13T08:58:14.660Z,6.70
2023-01-13T09:00:42.899Z,6.70
2023-01-13T09:03:09.943Z,6.70
2023-01-13T09:05:36.916Z,6.80
2023-01-13T09:08:03.671Z,6.80
2023-01-13T09:10:30.539Z,6.90
2023-01-13T09:13:12.789Z,6.90
2023-01-13T09:15:45.369Z,6.90
2023-01-13T09:18:13.003Z,6.90
2023-01-13T09:20:40.384Z,6.90
2023-01-13T09:23:10.048Z,6.90
2023-01-13T09:25:37.673Z,6.80
2023-01-13T09:28:05.063Z,6.80
2023-01-13T09:30:32.379Z,6.80
2023-01-13T09:33:18.397Z,6.80
2023-01-13T09:35:45.671Z,6.80
2023-01-13T09:38:12.469Z,6.90
2023-01-13T09:40:41.385Z,6.90
2023-01-13T09:43:47.895Z,6.90
2023-01-13T09:46:43.441Z,7.00
2023-01-13T09:49:22.866Z,7.00
2023-01-13T09:52:05.545Z,7.10
2023-01-13T09:54:41.299Z,7.10
2023-01-13T09:57:13.249Z,7.20
2023-01-13T09:59:41.108Z,7.20
2023-01-13T10:02:19.908Z,7.30
2023-01-13T10:05:17.708Z,7.40
2023-01-13T10:08:02.264Z,7.50
2023-01-13T10:10:55.194Z,7.60
2023-01-13T10:13:29.538Z,7.70
2023-01-13T10:16:25.541Z,7.70
2023-01-13T10:19:18.068Z,7.80
2023-01-13T10:22:10.914Z,7.80
2023-01-13T10:25:14.957Z,8.00
2023-01-13T10:27:43.111Z,8.10
2023-01-13T10:30:21.687Z,8.20
2023-01-13T10:32:57.909Z,8.20
2023-01-13T10:35:50.121Z,8.30
2023-01-13T10:38:29.929Z,8.30
2023-01-13T10:41:05.966Z,8.40
2023-01-13T10:43:33.072Z,8.60
2023-01-13T10:46:06.622Z,8.70
2023-01-13T10:48:36.964Z,8.80
2023-01-13T10:51:13.799Z,8.90
2023-01-13T10:54:12.853Z,9.00
2023-01-13T10:56:42.491Z,9.10
2023-01-13T10:59:14.972Z,9.10
2023-01-13T11:01:53.851Z,9.20
2023-01-13T11:04:31.316Z,9.20
2023-01-13T11:06:59.329Z,9.10
2023-01-13T11:09:27.688Z,9.10
2023-01-13T11:11:56.158Z,9.10
2023-01-13T11:14:39.807Z,9.10
2023-01-13T11:17:39.459Z,9.20
2023-01-13T11:20:15.962Z,9.30
2023-01-13T11:22:48.975Z,9.40
2023-01-13T11:25:23.220Z,9.60
2023-01-13T11:28:17.629Z,9.70
2023-01-13T11:30:57.029Z,9.80
2023-01-13T11:33:52.215Z,9.90
2023-01-13T11:36:25.027Z,9.90
2023-01-13T11:38:56.000Z,9.90
2023-01-13T11:41:32.029Z,9.80
2023-01-13T11:44:04.797Z,9.90
2023-01-13T11:46:33.085Z,10.00
2023-01-13T11:49:01.443Z,10.00
2023-01-13T11:52:06.276Z,10.00
2023-01-13T11:54:59.648Z,10.10
2023-01-13T11:57:46.986Z,10.10
2023-01-13T12:00:37.347Z,10.10
2023-01-13T12:03:34.099Z,10.10
2023-01-13T12:06:22.071Z,10.20
2023-01-13T12:08:54.643Z,10.20
2023-01-13T12:12:12.400Z,10.10
2023-01-13T12:14:39.307Z,9.90
2023-01-13T12:17:19.354Z,9.90
2023-01-13T12:19:51.359Z,9.80
2023-01-13T12:22:31.750Z,9.80
2023-01-13T12:25:06.266Z,9.90
2023-01-13T12:27:33.115Z,10.00
2023-01-13T12:30:03.612Z,10.00
2023-01-13T12:32:38.267Z,10.00
2023-01-13T12:35:23.244Z,10.00
2023-01-13T12:38:06.973Z,10.00
2023-01-13T12:40:39.786Z,10.10
2023-01-13T12:43:35.155Z,10.10
2023-01-13T12:46:22.916Z,10.20
2023-01-13T12:48:57.147Z,10.10
2023-01-13T12:51:57.384Z,10.10
2023-01-13T12:54:45.071Z,10.00
2023-01-13T12:57:22.024Z,9.90
2023-01-13T13:00:09.029Z,9.90
2023-01-13T13:02:40.968Z,9.90
2023-01-13T13:05:24.165Z,9.90
2023-01-13T13:08:16.542Z,9.90
2023-01-13T13:11:02.629Z,10.00
2023-01-13T13:13:50.254Z,10.00
2023-01-13T13:16:26.455Z,10.20
2023-01-13T13:19:18.976Z,10.30
2023-01-13T13:22:08.547Z,10.40
2023-01-13T13:24:35.463Z,10.60
2023-01-13T13:27:24.777Z,10.80
2023-01-13T13:30:02.073Z,10.90
2023-01-13T13:32:47.530Z,11.00
2023-01-13T13:35:52.341Z,11.10
2023-01-13T13:38:59.531Z,11.10
2023-01-13T13:41:48.099Z,11.10
2023-01-13T13:44:42.347Z,11.10
2023-01-13T13:47:10.199Z,11.10
2023-01-13T13:49:40.655Z,11.00
2023-01-13T13:52:20.724Z,11.00
2023-01-13T13:54:52.615Z,10.90
2023-01-13T13:57:28.161Z,10.90
2023-01-13T13:59:57.610Z,10.90
2023-01-13T14:02:30.753Z,10.90
2023-01-13T14:05:30.411Z,10.80
2023-01-13T14:08:17.621Z,10.80
2023-01-13T14:10:46.249Z,10.70
2023-01-13T14:13:33.896Z,10.60
2023-01-13T14:16:06.828Z,10.50
2023-01-13T14:18:46.008Z,10.40
2023-01-13T14:21:18.206Z,10.30
2023-01-13T14:24:02.119Z,10.30
2023-01-13T14:26:32.590Z,10.20
2023-01-13T14:29:02.140Z,10.10
2023-01-13T14:31:30.313Z,10.00
2023-01-13T14:34:00.855Z,10.00
2023-01-13T14:36:33.696Z,9.90
2023-01-13T14:39:03.496Z,10.00
2023-01-13T14:41:48.601Z,10.00
2023-01-13T14:44:27.058Z,9.80
2023-01-13T14:46:58.190Z,9.40
2023-01-13T14:49:38.510Z,8.80
2023-01-13T14:52:07.518Z,8.30
2023-01-13T14:54:52.348Z,8.00
2023-01-13T14:57:33.900Z,7.70
2023-01-13T15:00:03.938Z,7.50
2023-01-13T15:02:30.703Z,7.30
2023-01-13T15:05:22.503Z,7.30
2023-01-13T15:07:50.454Z,7.20
2023-01-13T15:10:28.466Z,6.80
2023-01-13T15:12:57.697Z,6.70
2023-01-13T15:15:30.457Z,6.60
2023-01-13T15:17:57.502Z,6.60
2023-01-13T15:20:25.008Z,6.40
2023-01-13T15:22:52.828Z,6.40
2023-01-13T15:25:20.868Z,6.20
2023-01-13T15:27:50.625Z,6.20
2023-01-13T15:30:24.890Z,6.10
2023-01-13T15:32:55.974Z,6.10
2023-01-13T15:35:24.752Z,6.10
2023-01-13T15:37:52.470Z,6.10
2023-01-13T15:40:23.800Z,6.10
2023-01-13T15:43:09.154Z,6.10
2023-01-13T15:45:56.051Z,6.00
2023-01-13T15:48:24.257Z,6.00
2023-01-13T15:50:51.698Z,6.00
2023-01-13T15:53:18.553Z,5.90
2023-01-13T15:55:49.104Z,5.90
2023-01-13T15:58:19.228Z,5.90
2023-01-13T16:00:45.992Z,5.80
2023-01-13T16:03:14.085Z,5.70
2023-01-13T16:05:41.839Z,5.70
2023-01-13T16:08:20.410Z,5.70
2023-01-13T16:10:47.455Z,5.60
2023-01-13T16:13:15.767Z,5.60
2023-01-13T16:15:50.803Z,5.50
2023-01-13T16:18:20.865Z,5.40
2023-01-13T16:20:52.929Z,5.30
2023-01-13T16:23:22.550Z,5.30
2023-01-13T16:25:50.468Z,5.20
2023-01-13T16:28:24.494Z,5.10
2023-01-13T16:30:51.475Z,5.00
2023-01-13T16:33:18.350Z,4.90
2023-01-13T16:36:10.879Z,4.80
2023-01-13T16:38:32.095Z,4.70
2023-01-13T16:40:59.047Z,4.70
2023-01-13T16:43:25.948Z,4.60
2023-01-13T16:45:53.049Z,4.50
2023-01-13T16:48:20.622Z,4.40
2023-01-13T16:50:47.674Z,4.30
2023-01-13T16:53:14.571Z,4.30
2023-01-13T16:55:42.351Z,4.20
2023-01-13T16:58:20.652Z,4.20
2023-01-13T17:00:48.947Z,4.10
2023-01-13T17:03:16.582Z,4.00
2023-01-13T17:05:44.374Z,4.00
2023-01-13T17:08:17.665Z,3.90
2023-01-13T17:10:46.919Z,3.90
2023-01-13T17:13:17.004Z,3.80
2023-01-13T17:15:47.572Z,3.80
2023-01-13T17:18:14.509Z,3.90
2023-01-13T17:20:41.516Z,3.90
2023-01-13T17:23:08.404Z,3.90
2023-01-13T17:25:35.123Z,3.80
2023-01-13T17:28:01.884Z,3.90
2023-01-13T17:30:28.849Z,3.80
2023-01-13T17:32:55.571Z,3.80
2023-01-13T17:35:24.901Z,3.80
2023-01-13T17:37:53.304Z,3.80
2023-01-13T17:40:20.656Z,3.80
2023-01-13T17:42:47.324Z,3.70
2023-01-13T17:45:15.040Z,3.70
2023-01-13T17:47:41.654Z,3.60
2023-01-13T17:50:10.102Z,3.60
2023-01-13T17:52:36.812Z,3.60
2023-01-13T17:55:05.012Z,3.60
2023-01-13T17:57:31.735Z,3.70
2023-01-13T17:59:59.626Z,3.80
2023-01-13T18:02:26.519Z,3.90
2023-01-13T18:04:53.567Z,4.00
2023-01-13T18:07:20.349Z,4.00
2023-01-13T18:09:48.770Z,4.10
2023-01-13T18:12:15.696Z,4.20
2023-01-13T18:14:42.473Z,4.30
2023-01-13T18:17:09.285Z,4.30
2023-01-13T18:19:54.625Z,4.40
2023-01-13T18:22:40.195Z,4.40
2023-01-13T18:25:32.109Z,4.50
2023-01-13T18:28:05.297Z,4.50
2023-01-13T18:30:32.104Z,4.50
2023-01-13T18:32:59.281Z,4.60
2023-01-13T18:35:26.068Z,4.60
2023-01-13T18:37:54.426Z,4.60
2023-01-13T18:40:21.394Z,4.60
2023-01-13T18:42:51.497Z,4.60
2023-01-13T18:45:28.006Z,4.60
2023-01-13T18:47:56.785Z,4.60
2023-01-13T18:50:24.391Z,4.50
2023-01-13T18:52:51.535Z,4.50
2023-01-13T18:55:18.422Z,4.50
2023-01-13T18:57:45.754Z,4.40
2023-01-13T19:00:16.070Z,4.40
2023-01-13T19:02:46.568Z,4.40
2023-01-13T19:05:13.957Z,4.30
2023-01-13T19:07:40.750Z,4.30
2023-01-13T19:10:09.688Z,4.30
2023-01-13T19:12:36.777Z,4.30
2023-01-13T19:15:04.742Z,4.30
2023-01-13T19:17:34.764Z,4.30
2023-01-13T19:20:02.553Z,4.30
2023-01-13T19:22:32.693Z,4.20
2023-01-13T19:25:00.494Z,4.20
2023-01-13T19:27:28.413Z,4.10
2023-01-13T19:29:58.609Z,4.00
2023-01-13T19:32:25.819Z,4.10
2023-01-13T19:34:54.928Z,4.10
2023-01-13T19:37:25.094Z,4.10
2023-01-13T19:39:52.166Z,4.20
2023-01-13T19:42:37.445Z,4.20
2023-01-13T19:45:23.455Z,4.30
2023-01-13T19:47:50.148Z,4.30
2023-01-13T19:50:17.097Z,4.30
2023-01-13T19:52:44.197Z,4.40
2023-01-13T19:55:12.634Z,4.40
2023-01-13T19:57:40.515Z,4.40
2023-01-13T20:00:10.262Z,4.50
2023-01-13T20:02:44.862Z,4.50
2023-01-13T20:05:12.973Z,4.60
2023-01-13T20:07:39.993Z,4.60
2023-01-13T20:10:07.465Z,4.70
2023-01-13T20:12:34.288Z,4.70
2023-01-13T20:15:01.273Z,4.70
2023-01-13T20:17:29.339Z,4.70
2023-01-13T20:19:59.097Z,4.70
2023-01-13T20:22:25.761Z,4.70
2023-01-13T20:24:55.767Z,4.70
2023-01-13T20:27:24.002Z,4.70
2023-01-13T20:29:51.770Z,4.70
2023-01-13T20:32:18.483Z,4.70
2023-01-13T20:34:45.330Z,4.60
2023-01-13T20:37:12.048Z,4.70
2023-01-13T20:39:41.903Z,4.70
2023-01-13T20:42:28.181Z,4.80
2023-01-13T20:44:57.518Z,4.80
2023-01-13T20:47:25.109Z,4.80
2023-01-13T20:49:52.089Z,4.90
2023-01-13T20:52:19.111Z,5.00
2023-01-13T20:54:46.179Z,5.00
2023-01-13T20:57:13.297Z,5.10
2023-01-13T20:59:42.174Z,5.10
2023-01-13T21:02:13.605Z,5.10
2023-01-13T21:04:42.852Z,5.20
2023-01-13T21:07:09.877Z,5.20
2023-01-13T21:09:39.229Z,5.20
2023-01-13T21:12:26.084Z,5.30
2023-01-13T21:15:12.261Z,5.30
2023-01-13T21:17:57.386Z,5.30
2023-01-13T21:20:27.145Z,5.30
2023-01-13T21:22:56.789Z,5.30
2023-01-13T21:25:23.887Z,5.30
2023-01-13T21:27:54.860Z,5.30
2023-01-13T21:30:21.644Z,5.20
2023-01-13T21:32:49.202Z,5.20
2023-01-13T21:35:17.200Z,5.10
2023-01-13T21:37:44.484Z,5.10
2023-01-13T21:40:13.965Z,5.10
2023-01-13T21:42:59.378Z,5.10
2023-01-13T21:45:44.628Z,5.10
2023-01-13T21:48:11.895Z,5.00
2023-01-13T21:50:39.021Z,5.00
2023-01-13T21:53:08.018Z,4.90
2023-01-13T21:55:36.526Z,4.90
2023-01-13T21:58:12.407Z,4.90
2023-01-13T22:00:43.949Z,4.80
2023-01-13T22:03:14.497Z,4.80
2023-01-13T22:05:41.766Z,4.80
2023-01-13T22:08:12.293Z,4.80
2023-01-13T22:10:56.979Z,4.80
2023-01-13T22:13:42.843Z,4.80
2023-01-13T22:16:10.449Z,4.80
2023-01-13T22:18:37.288Z,4.80
2023-01-13T22:21:04.695Z,4.80
2023-01-13T22:23:33.957Z,4.80
2023-01-13T22:26:02.113Z,4.80
2023-01-13T22:28:40.250Z,4.80
2023-01-13T22:31:10.990Z,4.70
2023-01-13T22:33:40.263Z,4.70
2023-01-13T22:36:10.467Z,4.60
2023-01-13T22:38:37.382Z,4.60
2023-01-13T22:41:08.184Z,4.50
2023-01-13T22:43:38.685Z,4.50
2023-01-13T22:46:25.828Z,4.40
2023-01-13T22:48:56.486Z,4.30
2023-01-13T22:51:26.653Z,4.30
2023-01-13T22:53:56.792Z,4.20
2023-01-13T22:56:26.465Z,4.10
2023-01-13T22:58:55.567Z,4.00
2023-01-13T23:01:24.288Z,3.90
2023-01-13T23:03:54.101Z,3.80
2023-01-13T23:06:24.525Z,3.70
2023-01-13T23:08:52.565Z,3.70
2023-01-13T23:11:23.541Z,3.70
2023-01-13T23:13:56.938Z,3.60
2023-01-13T23:16:24.976Z,3.50
2023-01-13T23:18:53.165Z,3.40
2023-01-13T23:21:26.903Z,3.40
2023-01-13T23:23:55.608Z,3.30
2023-01-13T23:26:25.612Z,3.30
2023-01-13T23:28:53.229Z,3.20
2023-01-13T23:31:22.650Z,3.20
2023-01-13T23:33:51.088Z,3.20
2023-01-13T23:36:21.660Z,3.20
2023-01-13T23:38:49.984Z,3.20
2023-01-13T23:41:22.516Z,3.10
2023-01-13T23:43:56.809Z,3.10
2023-01-13T23:46:25.045Z,3.10
2023-01-13T23:48:55.360Z,3.10
2023-01-13T23:51:26.093Z,3.10
2023-01-13T23:53:54.246Z,3.10
2023-01-13T23:56:28.280Z,3.10
2023-01-13T23:58:56.584Z,3.10
